Time;durP1;ratioP1;P1;durP2;ratioP2;P2;SDS_P1;SDS_P2;PMS_P1;PMS_P2;Temp;Humidity;BMP_temperature;BMP_pressure;BME280_temperature;BME280_humidity;BME280_pressure;Samples;Min_cycle;Max_cycle;Signal;HPM_P1;HPM_P2
2021/07/19 00:00:10;;;;;;;;;;;;;;;23.41;64.54;99569.78;2066823;28;20013;-66
2021/07/19 00:01:11;;;;;;;;;;;;;;;23.42;64.64;99571.50;2066387;28;20362;-66
2021/07/19 00:02:11;;;;;;;;;;;;;;;23.42;64.39;99560.50;2067355;28;20120;-66
2021/07/19 00:03:11;;;;;;;;;;;;;;;23.41;64.39;99560.69;2066334;28;19956;-67
2021/07/19 00:04:12;;;;;;;;;;;;;;;23.40;64.28;99559.00;2061708;28;19968;-67
2021/07/19 00:05:14;;;;;;;;;;;;;;;23.41;64.56;99563.44;2065572;28;20396;-66
2021/07/19 00:06:14;;;;;;;;;;;;;;;23.40;64.48;99570.00;2066092;28;19956;-66
2021/07/19 00:07:14;;;;;;;;;;;;;;;23.39;64.52;99560.88;2067751;28;20308;-66
2021/07/19 00:08:15;;;;;;;;;;;;;;;23.40;64.59;99562.59;2066645;28;20720;-66
2021/07/19 00:09:15;;;;;;;;;;;;;;;23.40;64.57;99568.09;2067423;28;19975;-67
2021/07/19 00:10:17;;;;;;;;;;;;;;;23.40;64.50;99573.59;2068060;28;20390;-67
2021/07/19 00:11:18;;;;;;;;;;;;;;;23.41;64.45;99569.78;2068176;28;20754;-67
2021/07/19 00:12:18;;;;;;;;;;;;;;;23.41;64.50;99571.69;2071210;28;19921;-67
2021/07/19 00:13:19;;;;;;;;;;;;;;;23.40;64.45;99573.59;2068356;28;19939;-66
2021/07/19 00:14:19;;;;;;;;;;;;;;;23.40;64.39;99559.84;2069221;28;19932;-66
2021/07/19 00:15:24;;;;;;;;;;;;;;;23.41;64.30;99574.44;2068071;28;20020;-66
2021/07/19 00:16:24;;;;;;;;;;;;;;;23.39;64.42;99571.88;2065178;28;19996;-67
2021/07/19 00:17:25;;;;;;;;;;;;;;;23.39;64.34;99566.38;2066161;28;19924;-66
2021/07/19 00:18:25;;;;;;;;;;;;;;;23.40;64.27;99562.59;2067974;28;19949;-66
2021/07/19 00:19:25;;;;;;;;;;;;;;;23.41;64.31;99569.78;2067078;28;19925;-67
2021/07/19 00:20:26;;;;;;;;;;;;;;;23.39;64.40;99560.88;2067264;28;20526;-67
2021/07/19 00:21:26;;;;;;;;;;;;;;;23.39;64.48;99566.38;2069048;28;20685;-66
2021/07/19 00:22:26;;;;;;;;;;;;;;;23.40;64.56;99556.25;2067018;28;19971;-67
2021/07/19 00:23:27;;;;;;;;;;;;;;;23.39;64.49;99571.88;2068544;28;19921;-67
2021/07/19 00:24:27;;;;;;;;;;;;;;;23.39;64.49;99563.63;2068240;28;20986;-67
2021/07/19 00:25:28;;;;;;;;;;;;;;;23.40;64.28;99559.00;2067999;28;19952;-67
2021/07/19 00:26:29;;;;;;;;;;;;;;;23.39;64.49;99555.38;2065002;28;20464;-66
2021/07/19 00:27:29;;;;;;;;;;;;;;;23.39;64.48;99555.38;2066437;28;19920;-67
2021/07/19 00:28:29;;;;;;;;;;;;;;;23.39;64.39;99558.13;2070084;28;19982;-66
2021/07/19 00:29:30;;;;;;;;;;;;;;;23.39;64.31;99555.38;2068492;28;19921;-66
2021/07/19 00:30:32;;;;;;;;;;;;;;;23.38;64.34;99550.94;2065820;28;20067;-67
2021/07/19 00:31:34;;;;;;;;;;;;;;;23.39;64.41;99551.78;2066203;28;20365;-67
2021/07/19 00:32:34;;;;;;;;;;;;;;;23.37;64.44;99554.72;2068891;28;19924;-66
2021/07/19 00:33:36;;;;;;;;;;;;;;;23.38;64.61;99553.69;2067364;28;19975;-66
2021/07/19 00:34:36;;;;;;;;;;;;;;;23.38;64.58;99559.19;2067834;28;20020;-65
2021/07/19 00:35:37;;;;;;;;;;;;;;;23.39;64.60;99560.03;2072375;28;19917;-65
2021/07/19 00:36:37;;;;;;;;;;;;;;;23.38;64.57;99553.69;2072505;28;19921;-65
2021/07/19 00:37:38;;;;;;;;;;;;;;;23.39;64.35;99552.63;2062945;28;20362;-66
2021/07/19 00:38:39;;;;;;;;;;;;;;;23.39;64.55;99549.88;2064344;28;19932;-66
2021/07/19 00:39:39;;;;;;;;;;;;;;;23.37;64.57;99540.97;2070106;28;19967;-66
2021/07/19 00:40:39;;;;;;;;;;;;;;;23.38;64.49;99547.31;2065027;28;20390;-66
2021/07/19 00:41:40;;;;;;;;;;;;;;;23.38;64.43;99548.19;2070574;28;19921;-67
2021/07/19 00:42:43;;;;;;;;;;;;;;;23.38;64.42;99545.44;2063751;28;20644;-66
2021/07/19 00:43:44;;;;;;;;;;;;;;;23.37;64.52;99543.72;2065089;28;20020;-66
2021/07/19 00:44:44;;;;;;;;;;;;;;;23.38;64.29;99550.06;2065138;28;19922;-66
2021/07/19 00:45:44;;;;;;;;;;;;;;;23.37;64.46;99551.97;2063885;28;20040;-67
2021/07/19 00:46:45;;;;;;;;;;;;;;;23.38;64.53;99553.69;2069128;28;19924;-67
2021/07/19 00:47:46;;;;;;;;;;;;;;;23.38;64.68;99559.19;2065850;28;19917;-67
2021/07/19 00:48:47;;;;;;;;;;;;;;;23.37;64.56;99551.09;2061544;28;20059;-67
2021/07/19 00:49:47;;;;;;;;;;;;;;;23.37;64.45;99557.47;2067901;28;20002;-66
2021/07/19 00:50:48;;;;;;;;;;;;;;;23.37;64.47;99557.47;2065297;28;19921;-67
2021/07/19 00:51:48;;;;;;;;;;;;;;;23.37;64.34;99546.47;2068466;28;19917;-67
2021/07/19 00:52:50;;;;;;;;;;;;;;;23.37;64.38;99556.59;2067705;28;19968;-66
2021/07/19 00:53:50;;;;;;;;;;;;;;;23.38;64.49;99559.19;2068993;28;19921;-66
2021/07/19 00:54:51;;;;;;;;;;;;;;;23.37;64.43;99562.97;2067862;28;20133;-66
2021/07/19 00:55:54;;;;;;;;;;;;;;;23.37;64.54;99556.59;2068494;28;19921;-67
2021/07/19 00:56:55;;;;;;;;;;;;;;;23.36;64.47;99553.00;2068845;28;19947;-66
2021/07/19 00:57:56;;;;;;;;;;;;;;;23.36;64.37;99555.75;2065377;28;19921;-66
2021/07/19 00:58:57;;;;;;;;;;;;;;;23.36;64.40;99555.75;2069576;28;19975;-66
2021/07/19 01:00:02;;;;;;;;;;;;;;;23.36;64.58;99561.25;2067399;28;20082;-67
2021/07/19 01:01:03;;;;;;;;;;;;;;;23.36;64.48;99550.25;2069808;28;20120;-67
2021/07/19 01:02:05;;;;;;;;;;;;;;;23.36;64.28;99550.25;2070945;28;19921;-67
2021/07/19 01:03:06;;;;;;;;;;;;;;;23.37;64.51;99551.97;2067582;28;19960;-67
2021/07/19 01:04:08;;;;;;;;;;;;;;;23.36;64.39;99550.25;2069463;28;19974;-66
2021/07/19 01:05:09;;;;;;;;;;;;;;;23.37;64.23;99545.59;2068809;28;19921;-66
2021/07/19 01:06:10;;;;;;;;;;;;;;;23.36;64.34;99553.00;2064561;28;19921;-66
2021/07/19 01:07:11;;;;;;;;;;;;;;;23.36;64.43;99550.25;2070089;28;19928;-66
2021/07/19 01:08:12;;;;;;;;;;;;;;;23.37;64.13;99557.47;2063512;28;20354;-67
2021/07/19 01:09:12;;;;;;;;;;;;;;;23.35;64.35;99543.06;2069669;28;20997;-67
2021/07/19 01:10:16;;;;;;;;;;;;;;;23.36;64.23;99544.75;2066611;28;19917;-66
2021/07/19 01:11:18;;;;;;;;;;;;;;;23.37;64.43;99545.59;2066263;28;20055;-67
2021/07/19 01:12:19;;;;;;;;;;;;;;;23.36;64.27;99544.75;2068632;28;19920;-66
2021/07/19 01:13:19;;;;;;;;;;;;;;;23.37;64.34;99553.84;2067100;28;20498;-67
2021/07/19 01:14:19;;;;;;;;;;;;;;;23.36;64.26;99550.25;2068982;28;19921;-66
2021/07/19 01:15:21;;;;;;;;;;;;;;;23.37;64.34;99553.84;2066318;28;19921;-67
2021/07/19 01:16:21;;;;;;;;;;;;;;;23.37;64.18;99548.34;2066412;28;19967;-67
2021/07/19 01:17:22;;;;;;;;;;;;;;;23.36;64.31;99550.25;2065283;28;19962;-67
2021/07/19 01:18:22;;;;;;;;;;;;;;;23.35;64.29;99554.06;2067031;28;19952;-66
2021/07/19 01:19:24;;;;;;;;;;;;;;;23.36;64.21;99547.50;2069457;28;19940;-67
2021/07/19 01:20:51;;;;;;;;;;;;;;;23.37;64.18;99551.97;2067694;28;19917;-66
2021/07/19 01:22:04;;;;;;;;;;;;;;;23.35;64.33;99545.81;2061428;28;20300;-66
2021/07/19 01:23:13;;;;;;;;;;;;;;;23.36;64.32;99550.25;2068461;28;19917;-66
2021/07/19 01:24:36;;;;;;;;;;;;;;;23.36;64.35;99549.41;2063093;28;19925;-66
2021/07/19 01:26:03;;;;;;;;;;;;;;;23.35;64.33;99547.69;2068429;28;19944;-66
2021/07/19 01:27:21;;;;;;;;;;;;;;;23.35;64.28;99543.06;2044458;28;19929;-66
2021/07/19 01:28:40;;;;;;;;;;;;;;;23.36;64.35;99539.25;2067165;28;20388;-66
2021/07/19 01:29:41;;;;;;;;;;;;;;;23.37;64.23;99540.97;2067031;28;20358;-66
2021/07/19 01:30:43;;;;;;;;;;;;;;;23.35;64.24;99545.81;2068805;28;19921;-67
2021/07/19 01:31:44;;;;;;;;;;;;;;;23.35;64.28;99545.81;2066266;28;19924;-66
2021/07/19 01:32:46;;;;;;;;;;;;;;;23.34;64.42;99544.09;2067851;28;19960;-66
2021/07/19 01:33:47;;;;;;;;;;;;;;;23.35;64.33;99539.44;2068026;28;19990;-67
2021/07/19 01:34:49;;;;;;;;;;;;;;;23.33;64.30;99540.50;2062886;28;19960;-66
2021/07/19 01:35:50;;;;;;;;;;;;;;;23.34;64.37;99546.84;2066934;28;19944;-66
2021/07/19 01:36:53;;;;;;;;;;;;;;;23.34;64.21;99541.34;2067025;28;19964;-66
2021/07/19 01:37:54;;;;;;;;;;;;;;;23.34;64.22;99535.84;2068122;28;19952;-66
2021/07/19 01:38:55;;;;;;;;;;;;;;;23.35;64.26;99533.94;2063176;28;19921;-66
2021/07/19 01:39:56;;;;;;;;;;;;;;;23.35;64.13;99533.94;2059224;28;19929;-66
2021/07/19 01:40:56;;;;;;;;;;;;;;;23.34;64.22;99527.59;2067686;28;19928;-66
2021/07/19 01:41:57;;;;;;;;;;;;;;;23.34;64.25;99535.84;2068737;28;20167;-66
2021/07/19 01:42:58;;;;;;;;;;;;;;;23.34;64.36;99530.34;2069066;28;20311;-66
2021/07/19 01:43:59;;;;;;;;;;;;;;;23.33;64.35;99525.91;2068390;28;19921;-68
2021/07/19 01:45:00;;;;;;;;;;;;;;;23.34;64.28;99530.34;2068301;28;19920;-67
2021/07/19 01:46:01;;;;;;;;;;;;;;;23.33;64.38;99528.66;2066597;28;20767;-68
2021/07/19 01:47:01;;;;;;;;;;;;;;;23.34;64.26;99530.34;2068977;28;19953;-68
2021/07/19 01:48:03;;;;;;;;;;;;;;;23.34;64.26;99538.59;2065841;28;19967;-68
2021/07/19 01:49:04;;;;;;;;;;;;;;;23.32;64.23;99538.81;2068234;28;20004;-69
2021/07/19 01:50:05;;;;;;;;;;;;;;;23.32;64.32;99537.91;2067918;28;19921;-68
2021/07/19 01:51:06;;;;;;;;;;;;;;;23.33;64.14;99535.00;2062888;28;19953;-65
2021/07/19 01:52:07;;;;;;;;;;;;;;;23.33;64.26;99534.16;2066772;28;19948;-67
2021/07/19 01:53:08;;;;;;;;;;;;;;;23.34;64.24;99535.84;2069061;28;19972;-67
2021/07/19 01:54:09;;;;;;;;;;;;;;;23.32;64.10;99544.31;2068637;28;20423;-67
2021/07/19 01:55:09;;;;;;;;;;;;;;;23.32;64.23;99537.91;2066872;28;20008;-67
2021/07/19 01:56:10;;;;;;;;;;;;;;;23.33;64.15;99540.50;2064758;28;20172;-67
2021/07/19 01:57:10;;;;;;;;;;;;;;;23.33;64.22;99534.16;2068122;28;20207;-67
2021/07/19 01:58:12;;;;;;;;;;;;;;;23.33;64.22;99537.75;2066160;28;19944;-67
2021/07/19 01:59:13;;;;;;;;;;;;;;;23.32;64.21;99532.41;2063317;28;19951;-67
2021/07/19 02:00:14;;;;;;;;;;;;;;;23.32;64.20;99532.41;2066298;28;19922;-67
2021/07/19 02:01:17;;;;;;;;;;;;;;;23.32;64.27;99537.91;2063512;28;19921;-69
2021/07/19 02:02:20;;;;;;;;;;;;;;;23.32;64.26;99544.31;2068988;28;20451;-67
2021/07/19 02:03:21;;;;;;;;;;;;;;;23.32;64.25;99544.31;2067691;28;19986;-67
2021/07/19 02:04:22;;;;;;;;;;;;;;;23.33;64.26;99545.16;2062790;28;19928;-67
2021/07/19 02:05:23;;;;;;;;;;;;;;;23.32;64.25;99548.94;2066494;28;19929;-67
2021/07/19 02:06:27;;;;;;;;;;;;;;;23.32;64.23;99549.81;2067324;28;19920;-67
2021/07/19 02:07:28;;;;;;;;;;;;;;;23.32;64.19;99548.94;2068497;28;20434;-67
2021/07/19 02:08:28;;;;;;;;;;;;;;;23.32;64.17;99554.41;2064338;28;20508;-67
2021/07/19 02:09:29;;;;;;;;;;;;;;;23.32;64.12;99557.16;2062916;28;19917;-67
2021/07/19 02:10:30;;;;;;;;;;;;;;;23.32;64.04;99543.41;2067662;28;19923;-67
2021/07/19 02:11:31;;;;;;;;;;;;;;;23.32;64.01;99543.41;2066310;28;19955;-66
2021/07/19 02:12:32;;;;;;;;;;;;;;;23.33;63.95;99545.16;2068553;28;19913;-67
2021/07/19 02:13:34;;;;;;;;;;;;;;;23.32;64.16;99544.31;2063488;28;19925;-67
2021/07/19 02:14:38;;;;;;;;;;;;;;;23.32;64.10;99543.41;2069390;28;19913;-67
2021/07/19 02:15:40;;;;;;;;;;;;;;;23.33;64.22;99545.16;2065179;28;20015;-67
2021/07/19 02:16:43;;;;;;;;;;;;;;;23.32;64.20;99548.94;2068004;28;20703;-66
2021/07/19 02:17:49;;;;;;;;;;;;;;;23.32;64.25;99547.06;2068020;28;19921;-67
2021/07/19 02:18:50;;;;;;;;;;;;;;;23.31;64.20;99545.31;2066506;28;19961;-67
2021/07/19 02:19:52;;;;;;;;;;;;;;;23.30;64.21;99546.38;2060609;28;19917;-66
2021/07/19 02:20:54;;;;;;;;;;;;;;;23.31;64.15;99541.72;2066162;28;19913;-67
2021/07/19 02:21:54;;;;;;;;;;;;;;;23.31;64.09;99541.72;2066038;28;20435;-68
2021/07/19 02:22:57;;;;;;;;;;;;;;;23.30;64.05;99534.53;2067947;28;20288;-67
2021/07/19 02:23:58;;;;;;;;;;;;;;;23.30;64.06;99540.88;2065132;28;19913;-67
2021/07/19 02:24:59;;;;;;;;;;;;;;;23.30;64.18;99543.63;2066844;28;20463;-67
2021/07/19 02:26:00;;;;;;;;;;;;;;;23.31;64.08;99536.22;2075619;28;20296;-67
2021/07/19 02:27:01;;;;;;;;;;;;;;;23.31;64.11;99536.22;2075341;28;19921;-67
2021/07/19 02:28:02;;;;;;;;;;;;;;;23.31;64.16;99541.72;2069398;28;20036;-67
2021/07/19 02:29:03;;;;;;;;;;;;;;;23.31;64.08;99541.72;2065209;28;20097;-67
2021/07/19 02:30:05;;;;;;;;;;;;;;;23.31;64.02;99539.81;2062259;28;19980;-67
2021/07/19 02:31:06;;;;;;;;;;;;;;;23.31;64.16;99536.22;2066970;28;20587;-67
2021/07/19 02:32:07;;;;;;;;;;;;;;;23.31;64.23;99541.72;2065346;28;20012;-67
2021/07/19 02:33:09;;;;;;;;;;;;;;;23.30;64.13;99534.53;2066915;28;19928;-67
2021/07/19 02:34:10;;;;;;;;;;;;;;;23.30;64.18;99540.88;2064135;28;20016;-67
2021/07/19 02:35:12;;;;;;;;;;;;;;;23.30;64.12;99540.03;2062731;28;19932;-67
2021/07/19 02:36:13;;;;;;;;;;;;;;;23.31;64.05;99541.72;2067141;28;19936;-67
2021/07/19 02:37:13;;;;;;;;;;;;;;;23.30;64.03;99543.63;2064002;28;19921;-67
2021/07/19 02:38:15;;;;;;;;;;;;;;;23.30;64.10;99542.78;2068374;28;20446;-67
2021/07/19 02:39:17;;;;;;;;;;;;;;;23.29;64.14;99541.91;2066390;28;19991;-67
2021/07/19 02:40:18;;;;;;;;;;;;;;;23.30;64.12;99540.03;2067121;28;19925;-67
2021/07/19 02:41:20;;;;;;;;;;;;;;;23.29;64.05;99538.31;2066187;28;20015;-68
2021/07/19 02:42:21;;;;;;;;;;;;;;;23.30;64.03;99540.03;2066519;28;19917;-67
2021/07/19 02:43:23;;;;;;;;;;;;;;;23.30;64.06;99535.38;2068728;28;19932;-67
2021/07/19 02:44:24;;;;;;;;;;;;;;;23.30;64.02;99540.03;2065870;28;20383;-67
2021/07/19 02:45:26;;;;;;;;;;;;;;;23.30;64.05;99537.28;2067669;28;19921;-67
2021/07/19 02:46:27;;;;;;;;;;;;;;;23.30;64.06;99545.53;2067274;28;19920;-66
2021/07/19 02:47:28;;;;;;;;;;;;;;;23.30;63.90;99542.78;2064828;28;19979;-66
2021/07/19 02:48:29;;;;;;;;;;;;;;;23.31;63.93;99544.47;2067411;28;19928;-67
2021/07/19 02:49:30;;;;;;;;;;;;;;;23.29;64.02;99538.31;2066548;28;20341;-67
2021/07/19 02:50:30;;;;;;;;;;;;;;;23.30;64.04;99540.03;2068022;28;19995;-67
2021/07/19 02:51:31;;;;;;;;;;;;;;;23.30;64.08;99545.53;2067143;28;19984;-67
2021/07/19 02:52:32;;;;;;;;;;;;;;;23.29;64.06;99549.31;2068986;28;19928;-67
2021/07/19 02:53:34;;;;;;;;;;;;;;;23.29;64.06;99541.06;2066875;28;19956;-67
2021/07/19 02:54:34;;;;;;;;;;;;;;;23.29;64.02;99543.81;2064807;28;19921;-67
2021/07/19 02:55:35;;;;;;;;;;;;;;;23.29;64.11;99539.16;2068366;28;20476;-67
2021/07/19 02:56:37;;;;;;;;;;;;;;;23.29;63.98;99538.31;2066711;28;19921;-67
2021/07/19 02:57:37;;;;;;;;;;;;;;;23.29;64.10;99541.06;2067909;28;20423;-67
2021/07/19 02:58:40;;;;;;;;;;;;;;;23.29;64.02;99541.06;2067356;28;21160;-66
2021/07/19 02:59:40;;;;;;;;;;;;;;;23.28;64.13;99531.13;2067490;28;19912;-67
2021/07/19 03:00:41;;;;;;;;;;;;;;;23.28;64.14;99537.47;2066163;28;20016;-67
2021/07/19 03:01:42;;;;;;;;;;;;;;;23.28;64.03;99531.97;2067111;28;19913;-67
2021/07/19 03:02:45;;;;;;;;;;;;;;;23.28;64.13;99537.47;2069907;28;19932;-67
2021/07/19 03:03:47;;;;;;;;;;;;;;;23.29;64.02;99543.81;2065300;28;19963;-67
2021/07/19 03:04:51;;;;;;;;;;;;;;;23.28;64.00;99531.13;2066765;28;19944;-67
2021/07/19 03:05:58;;;;;;;;;;;;;;;23.27;63.85;99537.66;2067331;28;19921;-66
2021/07/19 03:06:59;;;;;;;;;;;;;;;23.28;64.00;99531.97;2068480;28;19917;-67
2021/07/19 03:08:00;;;;;;;;;;;;;;;23.27;64.05;99527.53;2068055;28;19928;-67
2021/07/19 03:09:02;;;;;;;;;;;;;;;23.28;64.07;99531.13;2068883;28;19931;-67
2021/07/19 03:10:04;;;;;;;;;;;;;;;23.27;63.98;99534.91;2066290;28;19920;-67
2021/07/19 03:11:08;;;;;;;;;;;;;;;23.27;63.99;99541.28;2065077;28;19913;-67
2021/07/19 03:12:11;;;;;;;;;;;;;;;23.27;63.98;99538.53;2067628;28;19925;-67
2021/07/19 03:13:13;;;;;;;;;;;;;;;23.27;64.03;99529.41;2066140;28;19920;-66
2021/07/19 03:14:15;;;;;;;;;;;;;;;23.27;64.01;99534.91;2066373;28;20314;-67
2021/07/19 03:15:16;;;;;;;;;;;;;;;23.26;63.92;99528.56;2065750;28;19916;-66
2021/07/19 03:16:17;;;;;;;;;;;;;;;23.27;64.09;99534.91;2068139;28;20364;-67
2021/07/19 03:17:18;;;;;;;;;;;;;;;23.27;63.90;99533.03;2066411;28;20701;-66
2021/07/19 03:18:20;;;;;;;;;;;;;;;23.27;63.92;99537.66;2066007;28;19928;-66
2021/07/19 03:19:22;;;;;;;;;;;;;;;23.27;63.89;99534.91;2069151;28;19920;-66
2021/07/19 03:20:23;;;;;;;;;;;;;;;23.27;64.06;99534.91;2066323;28;19913;-66
2021/07/19 03:21:25;;;;;;;;;;;;;;;23.27;63.97;99534.91;2067009;28;19921;-66
2021/07/19 03:22:26;;;;;;;;;;;;;;;23.27;63.85;99529.41;2066481;28;19921;-66
2021/07/19 03:23:28;;;;;;;;;;;;;;;23.26;63.77;99533.19;2066609;28;20300;-67
2021/07/19 03:24:29;;;;;;;;;;;;;;;23.26;63.88;99533.19;2064782;28;19910;-67
2021/07/19 03:25:30;;;;;;;;;;;;;;;23.27;63.89;99534.91;2068251;28;20473;-66
2021/07/19 03:26:31;;;;;;;;;;;;;;;23.26;64.07;99533.19;2067746;28;19923;-66
2021/07/19 03:27:32;;;;;;;;;;;;;;;23.27;63.98;99534.91;2067910;28;19948;-67
2021/07/19 03:28:32;;;;;;;;;;;;;;;23.26;63.96;99535.94;2067308;28;20364;-66
2021/07/19 03:29:33;;;;;;;;;;;;;;;23.27;63.84;99540.41;2065972;28;19925;-66
2021/07/19 03:30:34;;;;;;;;;;;;;;;23.26;63.82;99538.69;2065053;28;20190;-67
2021/07/19 03:31:35;;;;;;;;;;;;;;;23.27;63.85;99548.66;2066834;28;20757;-66
2021/07/19 03:32:35;;;;;;;;;;;;;;;23.27;63.88;99534.91;2066371;28;20402;-66
2021/07/19 03:33:41;;;;;;;;;;;;;;;23.27;63.80;99540.41;2062667;28;19947;-66
2021/07/19 03:34:42;;;;;;;;;;;;;;;23.26;63.82;99531.28;2061429;28;20641;-68
2021/07/19 03:35:43;;;;;;;;;;;;;;;23.27;63.91;99537.66;2066653;28;19925;-68
2021/07/19 03:36:43;;;;;;;;;;;;;;;23.26;63.83;99527.69;2066693;28;19913;-68
2021/07/19 03:37:45;;;;;;;;;;;;;;;23.26;63.86;99533.19;2064089;28;19913;-67
2021/07/19 03:38:45;;;;;;;;;;;;;;;23.25;63.83;99529.59;2065729;28;19957;-68
2021/07/19 03:39:47;;;;;;;;;;;;;;;23.26;63.88;99522.19;2071799;28;20750;-67
2021/07/19 03:40:47;;;;;;;;;;;;;;;23.25;63.76;99536.97;2067689;28;19968;-67
2021/07/19 03:41:52;;;;;;;;;;;;;;;23.26;63.81;99533.19;2065978;28;20094;-67
2021/07/19 03:42:58;;;;;;;;;;;;;;;23.25;63.78;99523.22;2064246;28;20320;-67
2021/07/19 03:43:59;;;;;;;;;;;;;;;23.26;63.68;99524.94;2066428;28;19979;-67
2021/07/19 03:45:00;;;;;;;;;;;;;;;23.25;63.78;99526.84;2065751;28;19998;-68
2021/07/19 03:46:01;;;;;;;;;;;;;;;23.25;63.82;99517.72;2066512;28;19983;-67
2021/07/19 03:47:02;;;;;;;;;;;;;;;23.26;63.73;99522.19;2064595;28;19925;-67
2021/07/19 03:48:02;;;;;;;;;;;;;;;23.26;63.59;99522.19;2066833;28;20012;-67
2021/07/19 03:49:03;;;;;;;;;;;;;;;23.25;63.77;99515.84;2066375;28;19948;-68
2021/07/19 03:50:05;;;;;;;;;;;;;;;23.25;63.87;99514.97;2065185;28;19928;-67
2021/07/19 03:51:06;;;;;;;;;;;;;;;23.25;63.75;99523.22;2066482;28;20027;-68
2021/07/19 03:52:06;;;;;;;;;;;;;;;23.24;63.74;99519.63;2065824;28;19921;-67
2021/07/19 03:53:07;;;;;;;;;;;;;;;23.24;63.74;99524.28;2067696;28;19940;-67
2021/07/19 03:54:08;;;;;;;;;;;;;;;23.24;63.85;99518.78;2065310;28;19921;-67
2021/07/19 03:55:10;;;;;;;;;;;;;;;23.24;63.76;99521.53;2066746;28;20030;-67
2021/07/19 03:56:11;;;;;;;;;;;;;;;23.25;63.85;99523.22;2065806;28;19917;-67
2021/07/19 03:57:13;;;;;;;;;;;;;;;23.24;63.84;99524.28;2064924;28;19971;-68
2021/07/19 03:58:13;;;;;;;;;;;;;;;23.25;63.76;99528.72;2060529;28;20346;-68
2021/07/19 03:59:15;;;;;;;;;;;;;;;23.24;63.69;99524.28;2064633;28;19939;-67
2021/07/19 04:00:16;;;;;;;;;;;;;;;23.25;63.77;99525.97;2064775;28;19921;-67
2021/07/19 04:01:16;;;;;;;;;;;;;;;23.25;63.67;99531.47;2063852;28;20682;-69
2021/07/19 04:02:18;;;;;;;;;;;;;;;23.24;63.84;99524.28;2064862;28;19998;-68
2021/07/19 04:03:29;;;;;;;;;;;;;;;23.24;63.87;99524.28;2065227;28;19975;-68
2021/07/19 04:04:31;;;;;;;;;;;;;;;23.24;63.74;99527.88;2065470;28;20356;-67
2021/07/19 04:05:40;;;;;;;;;;;;;;;23.25;63.82;99525.97;2066402;28;19967;-67
2021/07/19 04:06:40;;;;;;;;;;;;;;;23.24;63.82;99532.53;2065557;28;19917;-67
2021/07/19 04:07:45;;;;;;;;;;;;;;;23.23;63.86;99528.94;2065534;28;20379;-67
2021/07/19 04:08:46;;;;;;;;;;;;;;;23.23;63.85;99525.34;2065404;28;20045;-68
2021/07/19 04:09:47;;;;;;;;;;;;;;;23.24;63.84;99529.78;2063772;28;19921;-68
2021/07/19 04:10:48;;;;;;;;;;;;;;;23.24;63.69;99524.28;2065093;28;19921;-67
2021/07/19 04:11:50;;;;;;;;;;;;;;;23.23;63.72;99528.09;2065094;28;20017;-67
2021/07/19 04:12:51;;;;;;;;;;;;;;;23.24;63.69;99527.03;2064993;28;19933;-67
2021/07/19 04:13:52;;;;;;;;;;;;;;;23.24;63.67;99524.28;2067309;28;19924;-68
2021/07/19 04:14:52;;;;;;;;;;;;;;;23.23;63.72;99525.34;2066626;28;19944;-67
2021/07/19 04:15:53;;;;;;;;;;;;;;;23.23;63.65;99522.59;2067728;28;20008;-67
2021/07/19 04:16:54;;;;;;;;;;;;;;;23.23;63.63;99526.19;2066623;28;19909;-67
2021/07/19 04:17:54;;;;;;;;;;;;;;;23.23;63.60;99517.09;2066295;28;19921;-67
2021/07/19 04:18:54;;;;;;;;;;;;;;;23.23;63.89;99517.94;2067247;28;20029;-68
2021/07/19 04:19:55;;;;;;;;;;;;;;;23.23;63.65;99520.69;2066852;28;20665;-68
2021/07/19 04:20:56;;;;;;;;;;;;;;;23.23;63.81;99522.59;2062841;28;19920;-67
2021/07/19 04:21:57;;;;;;;;;;;;;;;23.23;63.64;99528.09;2067444;28;19995;-66
2021/07/19 04:22:57;;;;;;;;;;;;;;;23.23;63.62;99528.09;2064745;28;19917;-67
2021/07/19 04:23:58;;;;;;;;;;;;;;;23.23;63.68;99531.69;2066802;28;19951;-67
2021/07/19 04:24:58;;;;;;;;;;;;;;;23.21;63.72;99531.03;2066462;28;19921;-67
2021/07/19 04:25:58;;;;;;;;;;;;;;;23.24;63.76;99532.53;2067453;28;20004;-67
2021/07/19 04:26:59;;;;;;;;;;;;;;;23.22;63.69;99531.88;2066890;28;20285;-67
2021/07/19 04:27:59;;;;;;;;;;;;;;;23.23;63.55;99525.34;2064082;28;19921;-67
2021/07/19 04:29:00;;;;;;;;;;;;;;;23.24;63.66;99535.28;2064589;28;19952;-67
2021/07/19 04:30:01;;;;;;;;;;;;;;;23.22;63.56;99526.38;2064955;28;20350;-67
2021/07/19 04:31:02;;;;;;;;;;;;;;;23.22;63.73;99526.38;2066945;28;19917;-67
2021/07/19 04:32:02;;;;;;;;;;;;;;;23.21;63.70;99536.53;2065580;28;19917;-67
2021/07/19 04:33:03;;;;;;;;;;;;;;;23.22;63.58;99542.88;2062136;28;19917;-67
2021/07/19 04:34:03;;;;;;;;;;;;;;;23.22;63.58;99549.22;2066088;28;19917;-67
2021/07/19 04:35:05;;;;;;;;;;;;;;;23.21;63.51;99538.44;2066351;28;19967;-67
2021/07/19 04:36:06;;;;;;;;;;;;;;;23.22;63.64;99548.38;2073677;28;20378;-67
2021/07/19 04:37:07;;;;;;;;;;;;;;;23.22;63.64;99548.38;2066683;28;19913;-67
2021/07/19 04:38:07;;;;;;;;;;;;;;;23.22;63.62;99540.13;2066204;28;19940;-67
2021/07/19 04:39:10;;;;;;;;;;;;;;;23.22;63.53;99545.63;2065466;28;19921;-67
2021/07/19 04:40:10;;;;;;;;;;;;;;;23.22;63.54;99548.38;2065105;28;19921;-67
2021/07/19 04:41:10;;;;;;;;;;;;;;;23.21;63.53;99546.66;2062095;28;19924;-67
2021/07/19 04:42:11;;;;;;;;;;;;;;;23.21;63.57;99541.16;2065925;28;20430;-67
2021/07/19 04:43:11;;;;;;;;;;;;;;;23.20;63.59;99543.06;2067428;28;19909;-67
2021/07/19 04:44:11;;;;;;;;;;;;;;;23.21;63.65;99541.16;2064644;28;20415;-67
2021/07/19 04:45:13;;;;;;;;;;;;;;;23.21;63.55;99535.69;2062571;28;19909;-67
2021/07/19 04:46:14;;;;;;;;;;;;;;;23.22;63.43;99540.13;2066022;28;19909;-67
2021/07/19 04:47:14;;;;;;;;;;;;;;;23.20;63.49;99545.81;2066500;28;19917;-67
2021/07/19 04:48:15;;;;;;;;;;;;;;;23.20;63.48;99543.06;2073008;28;19913;-67
2021/07/19 04:49:15;;;;;;;;;;;;;;;23.21;63.50;99546.66;2065845;28;19913;-67
2021/07/19 04:50:17;;;;;;;;;;;;;;;23.21;63.62;99546.66;2067184;28;20595;-67
2021/07/19 04:51:17;;;;;;;;;;;;;;;23.21;63.58;99552.16;2066988;28;19971;-67
2021/07/19 04:52:17;;;;;;;;;;;;;;;23.20;63.60;99548.56;2065301;28;19917;-67
2021/07/19 04:53:18;;;;;;;;;;;;;;;23.21;63.61;99546.66;2064534;28;19921;-67
2021/07/19 04:54:26;;;;;;;;;;;;;;;23.20;63.56;99544.94;2065442;28;19921;-67
2021/07/19 04:55:27;;;;;;;;;;;;;;;23.21;63.56;99546.66;2067475;28;19925;-67
2021/07/19 04:56:29;;;;;;;;;;;;;;;23.20;63.51;99544.94;2064867;28;19917;-67
2021/07/19 04:57:31;;;;;;;;;;;;;;;23.20;63.50;99545.81;2067331;28;19921;-68
2021/07/19 04:58:32;;;;;;;;;;;;;;;23.20;63.42;99539.44;2065687;28;19928;-67
2021/07/19 04:59:37;;;;;;;;;;;;;;;23.20;63.50;99542.19;2065913;28;19921;-68
2021/07/19 05:00:39;;;;;;;;;;;;;;;23.20;63.72;99542.19;2067395;28;19921;-67
2021/07/19 05:01:40;;;;;;;;;;;;;;;23.20;63.52;99539.44;2068201;28;19929;-67
2021/07/19 05:02:40;;;;;;;;;;;;;;;23.19;63.54;99535.84;2067122;28;19928;-68
2021/07/19 05:03:43;;;;;;;;;;;;;;;23.19;63.44;99544.09;2067700;28;19921;-67
2021/07/19 05:04:45;;;;;;;;;;;;;;;23.20;63.50;99539.44;2067161;28;20016;-68
2021/07/19 05:05:46;;;;;;;;;;;;;;;23.20;63.55;99536.69;2070842;28;19924;-67
2021/07/19 05:06:49;;;;;;;;;;;;;;;23.19;63.52;99546.00;2070225;28;20307;-68
2021/07/19 05:07:50;;;;;;;;;;;;;;;23.19;63.44;99543.25;2068244;28;19913;-67
2021/07/19 05:08:51;;;;;;;;;;;;;;;23.19;63.60;99537.75;2071352;28;19927;-68
2021/07/19 05:09:52;;;;;;;;;;;;;;;23.20;63.59;99544.94;2068763;28;19917;-68
2021/07/19 05:10:53;;;;;;;;;;;;;;;23.19;63.36;99544.09;2066509;28;19964;-68
2021/07/19 05:11:54;;;;;;;;;;;;;;;23.20;63.50;99544.94;2068059;28;20807;-68
2021/07/19 05:12:54;;;;;;;;;;;;;;;23.20;63.55;99539.44;2067669;28;19921;-68
2021/07/19 05:13:56;;;;;;;;;;;;;;;23.19;63.44;99538.59;2068037;28;20716;-68
2021/07/19 05:14:57;;;;;;;;;;;;;;;23.20;63.37;99528.44;2067809;28;20465;-68
2021/07/19 05:15:58;;;;;;;;;;;;;;;23.19;63.64;99526.75;2067339;28;19920;-68
2021/07/19 05:17:01;;;;;;;;;;;;;;;23.19;63.41;99527.59;2064583;28;19921;-68
2021/07/19 05:18:02;;;;;;;;;;;;;;;23.19;63.46;99521.25;2067164;28;19926;-68
2021/07/19 05:19:03;;;;;;;;;;;;;;;23.17;63.48;99524.19;2068264;28;20233;-68
2021/07/19 05:20:03;;;;;;;;;;;;;;;23.18;63.56;99517.66;2068923;28;19920;-68
2021/07/19 05:21:03;;;;;;;;;;;;;;;23.18;63.46;99517.66;2066349;28;19916;-68